Time;durP1;ratioP1;P1;durP2;ratioP2;P2;SDS_P1;SDS_P2;PMS_P1;PMS_P2;Temp;Humidity;BMP_temperature;BMP_pressure;BME280_temperature;BME280_humidity;BME280_pressure;Samples;Min_cycle;Max_cycle;Signal;HPM_P1;HPM_P2
2022/04/14 00:01:18;;;;;;;1.67;1.37;;;14.70;99.90;;;;;;5055628;28;20175;-73
2022/04/14 00:03:43;;;;;;;2.20;1.60;;;14.70;99.90;;;;;;5055281;28;20175;-73
2022/04/14 00:06:09;;;;;;;5.90;1.43;;;14.60;99.90;;;;;;5055447;28;20533;-73
2022/04/14 00:08:34;;;;;;;2.70;1.70;;;14.50;99.90;;;;;;5055340;28;20198;-73
2022/04/14 00:11:00;;;;;;;1.87;1.70;;;14.50;99.90;;;;;;5055468;28;20548;-73
2022/04/14 00:13:25;;;;;;;2.40;1.20;;;14.50;99.90;;;;;;5054905;28;20182;-73
2022/04/14 00:15:51;;;;;;;1.73;1.63;;;14.40;99.90;;;;;;5055299;28;20199;-73
2022/04/14 00:18:16;;;;;;;2.27;1.87;;;14.40;99.90;;;;;;5053771;28;20198;-72
2022/04/14 00:20:42;;;;;;;1.87;1.63;;;14.40;99.90;;;;;;5055167;28;20203;-72
2022/04/14 00:23:08;;;;;;;13.40;2.40;;;14.30;99.90;;;;;;5054923;28;20655;-72
2022/04/14 00:25:34;;;;;;;3.53;1.30;;;14.30;99.90;;;;;;5054961;28;20402;-72
2022/04/14 00:27:59;;;;;;;3.07;2.87;;;14.30;99.90;;;;;;5055044;28;20175;-72
2022/04/14 00:30:25;;;;;;;3.10;1.53;;;14.30;99.90;;;;;;5054876;28;20174;-73
2022/04/14 00:32:50;;;;;;;3.53;1.73;;;14.30;99.90;;;;;;5055063;28;20518;-73
2022/04/14 00:35:16;;;;;;;4.80;1.90;;;14.20;99.90;;;;;;5054571;28;20171;-73
2022/04/14 00:37:41;;;;;;;1.60;1.50;;;14.20;99.90;;;;;;5054809;28;20195;-73
2022/04/14 00:40:08;;;;;;;2.90;1.40;;;14.20;99.90;;;;;;5054660;28;20171;-73
2022/04/14 00:42:33;;;;;;;2.00;1.60;;;14.20;99.90;;;;;;5054728;28;20167;-73
2022/04/14 00:44:59;;;;;;;1.77;1.20;;;14.10;99.90;;;;;;5054492;28;20406;-73
2022/04/14 00:47:25;;;;;;;2.20;1.17;;;14.20;99.90;;;;;;5054684;28;20191;-73
2022/04/14 00:49:50;;;;;;;3.83;2.33;;;14.10;99.90;;;;;;5054521;28;20467;-73
2022/04/14 00:52:16;;;;;;;8.20;2.50;;;14.10;99.90;;;;;;5054567;28;20841;-73
2022/04/14 00:54:42;;;;;;;6.60;1.10;;;14.10;99.90;;;;;;5054160;28;20159;-72
2022/04/14 00:57:08;;;;;;;5.90;2.53;;;14.00;99.90;;;;;;5053230;28;20232;-72
2022/04/14 00:59:34;;;;;;;3.63;1.93;;;14.00;99.90;;;;;;5054409;28;20495;-73
2022/04/14 01:02:00;;;;;;;3.57;2.10;;;14.00;99.90;;;;;;5053229;28;20440;-74
2022/04/14 01:04:27;;;;;;;4.33;1.93;;;14.00;99.90;;;;;;5054003;28;20408;-74
2022/04/14 01:06:53;;;;;;;8.10;1.83;;;14.00;99.90;;;;;;5053089;28;20187;-74
2022/04/14 01:09:19;;;;;;;2.23;1.90;;;14.00;99.90;;;;;;5054369;28;20412;-73
2022/04/14 01:11:50;;;;;;;2.90;1.77;;;14.00;99.90;;;;;;5052749;28;20246;-73
2022/04/14 01:14:35;;;;;;;2.30;1.67;;;14.00;99.90;;;;;;5054028;28;20408;-73
2022/04/14 01:17:06;;;;;;;1.50;1.40;;;14.00;99.90;;;;;;5054065;28;20429;-73
2022/04/14 01:19:32;;;;;;;2.63;2.40;;;14.00;99.90;;;;;;5054023;28;20957;-73
2022/04/14 01:22:23;;;;;;;2.53;2.37;;;14.00;99.90;;;;;;5054076;28;20394;-73
2022/04/14 01:24:52;;;;;;;2.70;1.70;;;13.90;99.90;;;;;;5052325;28;20492;-73
2022/04/14 01:27:18;;;;;;;1.57;1.33;;;13.90;99.90;;;;;;5053763;28;20417;-73
2022/04/14 01:29:46;;;;;;;3.17;2.97;;;13.90;99.90;;;;;;5053976;28;20980;-73
2022/04/14 01:32:11;;;;;;;2.30;1.50;;;13.90;99.90;;;;;;5053895;28;20170;-74
2022/04/14 01:34:37;;;;;;;2.70;1.93;;;13.90;99.90;;;;;;5053565;28;20882;-73
2022/04/14 01:37:03;;;;;;;3.23;2.90;;;13.90;99.90;;;;;;5053598;28;20194;-73
2022/04/14 01:39:29;;;;;;;5.10;2.53;;;13.90;99.90;;;;;;5053658;28;20203;-73
2022/04/14 01:41:55;;;;;;;3.23;1.53;;;13.90;99.90;;;;;;5053244;28;20163;-74
2022/04/14 01:44:20;;;;;;;3.67;1.90;;;13.90;99.90;;;;;;5053430;28;20925;-74
2022/04/14 01:46:46;;;;;;;1.63;1.53;;;13.90;99.90;;;;;;5053564;28;20206;-74
2022/04/14 01:49:11;;;;;;;1.50;0.93;;;13.90;99.90;;;;;;5053656;28;20167;-74
2022/04/14 01:51:38;;;;;;;3.30;2.50;;;13.90;99.90;;;;;;5053440;28;20216;-74
2022/04/14 01:54:05;;;;;;;3.93;2.10;;;13.90;99.90;;;;;;5053163;28;20163;-74
2022/04/14 01:56:30;;;;;;;4.93;2.57;;;13.90;99.90;;;;;;5053176;28;20445;-74
2022/04/14 01:58:56;;;;;;;5.53;2.73;;;13.90;99.90;;;;;;5053351;28;20992;-74
2022/04/14 02:01:22;;;;;;;2.13;1.50;;;13.90;99.90;;;;;;5052786;28;20555;-74
2022/04/14 02:03:48;;;;;;;3.30;2.80;;;14.00;99.90;;;;;;5053044;28;20250;-74
2022/04/14 02:06:14;;;;;;;5.00;4.60;;;14.00;99.90;;;;;;5052213;28;20966;-74
2022/04/14 02:08:41;;;;;;;2.47;2.20;;;13.90;99.90;;;;;;5053231;28;20492;-75
2022/04/14 02:11:06;;;;;;;2.80;1.30;;;14.00;99.90;;;;;;5053095;28;20410;-74
2022/04/14 02:13:33;;;;;;;2.57;1.30;;;13.90;99.90;;;;;;5052750;28;20428;-74
2022/04/14 02:15:59;;;;;;;2.50;1.97;;;14.00;99.90;;;;;;5053031;28;20422;-74
2022/04/14 02:18:26;;;;;;;4.10;1.73;;;13.90;99.90;;;;;;5052910;28;20858;-74
2022/04/14 02:20:51;;;;;;;1.67;1.23;;;13.90;99.90;;;;;;5052975;28;20402;-74
2022/04/14 02:23:17;;;;;;;2.23;1.30;;;13.90;99.90;;;;;;5052521;28;20412;-74
2022/04/14 02:25:42;;;;;;;2.30;1.73;;;13.90;99.90;;;;;;5052465;28;20197;-74
2022/04/14 02:28:09;;;;;;;2.17;1.90;;;13.90;99.90;;;;;;5052677;28;20166;-74
2022/04/14 02:30:34;;;;;;;3.20;1.73;;;14.00;99.90;;;;;;5052648;28;20159;-74
2022/04/14 02:33:00;;;;;;;6.13;1.40;;;13.90;99.90;;;;;;5052498;28;20990;-74
2022/04/14 02:35:26;;;;;;;2.30;1.63;;;13.90;99.90;;;;;;5052210;28;20241;-74
2022/04/14 02:37:52;;;;;;;3.90;2.57;;;14.00;99.90;;;;;;5052310;28;20445;-74
2022/04/14 02:40:18;;;;;;;1.80;1.27;;;13.90;99.90;;;;;;5052330;28;20213;-74
2022/04/14 02:42:44;;;;;;;2.80;1.03;;;13.90;99.90;;;;;;5052362;28;20159;-74
2022/04/14 02:45:09;;;;;;;2.33;1.47;;;13.90;99.90;;;;;;5052097;28;20477;-74
2022/04/14 02:47:35;;;;;;;2.70;1.70;;;13.90;99.90;;;;;;5052282;28;20550;-73
2022/04/14 02:50:03;;;;;;;21.73;1.80;;;13.90;99.90;;;;;;5052272;28;20177;-74
2022/04/14 02:52:29;;;;;;;5.97;1.57;;;13.80;99.90;;;;;;5052230;28;20163;-73
2022/04/14 02:54:54;;;;;;;1.10;0.90;;;13.80;99.90;;;;;;5051656;28;20421;-74
2022/04/14 02:57:20;;;;;;;4.07;3.43;;;13.80;99.90;;;;;;5052203;28;20531;-74
2022/04/14 02:59:45;;;;;;;3.07;1.63;;;13.80;99.90;;;;;;5052046;28;20194;-74
2022/04/14 03:02:11;;;;;;;1.20;0.87;;;13.80;99.90;;;;;;5052161;28;20174;-74
2022/04/14 03:04:36;;;;;;;2.83;2.60;;;13.80;99.90;;;;;;5051781;28;20167;-75
2022/04/14 03:07:02;;;;;;;3.00;2.10;;;13.70;99.90;;;;;;5051948;28;20218;-74
2022/04/14 03:09:28;;;;;;;5.37;2.30;;;13.80;99.90;;;;;;5051903;28;20171;-74
2022/04/14 03:11:53;;;;;;;4.37;1.83;;;13.80;99.90;;;;;;5051268;28;20175;-74
2022/04/14 03:14:18;;;;;;;3.53;1.60;;;13.80;99.90;;;;;;5051371;28;20178;-74
2022/04/14 03:16:44;;;;;;;1.10;1.00;;;13.80;99.90;;;;;;5051951;28;20213;-73
2022/04/14 03:19:09;;;;;;;7.40;2.23;;;13.80;99.90;;;;;;5051802;28;20199;-73
2022/04/14 03:21:35;;;;;;;2.07;1.63;;;13.80;99.90;;;;;;5051836;28;20248;-73
2022/04/14 03:24:01;;;;;;;5.83;2.40;;;13.80;99.90;;;;;;5051532;28;20632;-73
2022/04/14 03:26:26;;;;;;;1.47;1.00;;;13.90;99.90;;;;;;5051684;28;20187;-74
2022/04/14 03:28:52;;;;;;;1.17;1.07;;;13.90;99.90;;;;;;5051818;28;20203;-73
2022/04/14 03:31:17;;;;;;;5.37;1.17;;;13.90;99.90;;;;;;5051709;28;20544;-73
2022/04/14 03:33:43;;;;;;;3.77;1.30;;;13.90;99.90;;;;;;5050135;28;20224;-73
2022/04/14 03:36:08;;;;;;;1.70;1.27;;;13.90;99.90;;;;;;5051706;28;20191;-73
2022/04/14 03:38:34;;;;;;;2.37;2.17;;;13.90;99.90;;;;;;5051563;28;20277;-73
2022/04/14 03:41:02;;;;;;;1.80;1.30;;;13.90;99.90;;;;;;5051670;28;20186;-75
2022/04/14 03:43:28;;;;;;;2.20;1.93;;;14.00;99.90;;;;;;5051434;28;20228;-76
2022/04/14 03:45:53;;;;;;;3.87;1.73;;;14.00;99.90;;;;;;5051530;28;20934;-72
2022/04/14 03:48:19;;;;;;;2.30;1.50;;;14.00;99.90;;;;;;5050673;28;20183;-73
2022/04/14 03:50:44;;;;;;;3.10;2.80;;;13.90;99.90;;;;;;5050330;28;20174;-73
2022/04/14 03:53:10;;;;;;;6.87;2.50;;;13.90;99.90;;;;;;5051468;28;20277;-73
2022/04/14 03:55:35;;;;;;;3.10;1.80;;;13.90;99.90;;;;;;5051135;28;20225;-72
2022/04/14 03:58:01;;;;;;;4.53;2.17;;;13.90;99.90;;;;;;5051474;28;20604;-73
2022/04/14 04:00:26;;;;;;;2.77;1.50;;;13.90;99.90;;;;;;5051535;28;20171;-73
2022/04/14 04:02:52;;;;;;;5.10;1.80;;;13.90;99.90;;;;;;5051506;28;20628;-74
2022/04/14 04:05:17;;;;;;;1.30;0.83;;;13.90;99.90;;;;;;5051176;28;20182;-74
2022/04/14 04:07:43;;;;;;;3.83;3.47;;;13.90;99.90;;;;;;5051297;28;20191;-74
2022/04/14 04:10:09;;;;;;;15.63;3.87;;;13.90;99.90;;;;;;5051393;28;20174;-74
2022/04/14 04:12:34;;;;;;;8.07;2.00;;;14.00;99.90;;;;;;5051361;28;20241;-74
2022/04/14 04:15:00;;;;;;;8.37;2.40;;;14.00;99.90;;;;;;5051072;28;20463;-77
2022/04/14 04:17:25;;;;;;;1.67;1.43;;;14.00;99.90;;;;;;5051391;28;20244;-75
2022/04/14 04:19:51;;;;;;;6.60;4.47;;;14.00;99.90;;;;;;5051249;28;20878;-74
2022/04/14 04:22:16;;;;;;;6.80;2.83;;;13.90;99.90;;;;;;5051182;28;20628;-74
2022/04/14 04:24:42;;;;;;;4.53;1.93;;;13.90;99.90;;;;;;5052356;28;20174;-74
2022/04/14 04:27:08;;;;;;;3.80;3.23;;;13.90;99.90;;;;;;5053672;28;20218;-74
2022/04/14 04:29:34;;;;;;;2.70;2.30;;;13.90;99.90;;;;;;5055056;28;20174;-74
2022/04/14 04:32:00;;;;;;;2.60;1.53;;;13.90;99.90;;;;;;5053697;28;20754;-74
2022/04/14 04:34:25;;;;;;;6.93;2.80;;;13.90;99.90;;;;;;5054737;28;20174;-74
2022/04/14 04:36:51;;;;;;;10.23;2.30;;;13.90;99.90;;;;;;5054642;28;20187;-74
2022/04/14 04:39:16;;;;;;;3.00;2.80;;;13.90;99.90;;;;;;5054706;28;20202;-74
2022/04/14 04:41:42;;;;;;;6.77;1.27;;;13.90;99.90;;;;;;5054754;28;20198;-74
2022/04/14 04:44:09;;;;;;;6.57;3.77;;;13.90;99.90;;;;;;5053059;28;20171;-74
2022/04/14 04:46:35;;;;;;;2.10;1.90;;;13.90;99.90;;;;;;5054567;28;20219;-73
2022/04/14 04:49:00;;;;;;;7.00;1.90;;;13.90;99.90;;;;;;5054616;28;20754;-73
2022/04/14 04:51:26;;;;;;;2.97;1.47;;;13.90;99.90;;;;;;5054572;28;20175;-72
2022/04/14 04:53:52;;;;;;;6.47;2.20;;;13.90;99.90;;;;;;5054214;28;20225;-73
2022/04/14 04:56:18;;;;;;;10.50;3.17;;;14.00;99.90;;;;;;5054380;28;20340;-73
2022/04/14 04:58:44;;;;;;;7.13;3.97;;;13.90;99.90;;;;;;5052959;28;20506;-72
2022/04/14 05:01:09;;;;;;;6.63;4.10;;;13.90;99.90;;;;;;5054425;28;20550;-77
2022/04/14 05:03:35;;;;;;;5.27;3.43;;;14.00;99.90;;;;;;5054118;28;20482;-73
2022/04/14 05:06:01;;;;;;;8.03;1.70;;;13.90;99.90;;;;;;5054051;28;20240;-73
2022/04/14 05:08:26;;;;;;;7.53;2.63;;;13.90;99.90;;;;;;5054272;28;20171;-74
2022/04/14 05:10:52;;;;;;;8.63;2.10;;;13.90;99.90;;;;;;5054210;28;20285;-73
2022/04/14 05:13:17;;;;;;;4.60;4.20;;;13.90;99.90;;;;;;5054079;28;20527;-73
2022/04/14 05:15:43;;;;;;;3.47;2.17;;;13.90;99.90;;;;;;5053906;28;20212;-73
2022/04/14 05:18:09;;;;;;;6.40;2.30;;;13.90;99.90;;;;;;5053915;28;20187;-73
2022/04/14 05:20:38;;;;;;;1.60;1.50;;;13.90;99.90;;;;;;5054137;28;20163;-73
2022/04/14 05:23:07;;;;;;;6.07;2.13;;;13.90;99.90;;;;;;5053869;28;20159;-73
2022/04/14 05:25:33;;;;;;;3.00;2.47;;;13.90;99.90;;;;;;5053618;28;20401;-73
2022/04/14 05:27:58;;;;;;;6.30;2.30;;;13.90;99.90;;;;;;5053844;28;20776;-73
2022/04/14 05:30:25;;;;;;;4.87;2.93;;;14.00;99.90;;;;;;5053918;28;20231;-73
2022/04/14 05:32:50;;;;;;;4.83;2.67;;;14.00;99.90;;;;;;5053814;28;20163;-74
2022/04/14 05:35:16;;;;;;;6.00;1.50;;;13.90;99.90;;;;;;5052484;28;20443;-74
2022/04/14 05:37:41;;;;;;;2.43;2.23;;;14.00;99.90;;;;;;5053591;28;20281;-74
2022/04/14 05:40:08;;;;;;;4.50;3.40;;;14.00;99.90;;;;;;5053538;28;20538;-74
2022/04/14 05:42:34;;;;;;;3.73;3.43;;;14.00;99.90;;;;;;5053634;28;20155;-74
2022/04/14 05:45:00;;;;;;;7.03;4.20;;;14.00;99.90;;;;;;5053264;28;21114;-74
2022/04/14 05:47:25;;;;;;;9.30;4.10;;;14.00;99.90;;;;;;5053556;28;20198;-73
2022/04/14 05:49:53;;;;;;;6.17;3.80;;;14.00;99.90;;;;;;5053309;28;20199;-76
2022/04/14 05:52:19;;;;;;;2.80;2.60;;;14.00;99.90;;;;;;5053479;28;20170;-74
2022/04/14 05:54:48;;;;;;;2.83;1.17;;;14.00;99.90;;;;;;5053005;28;20416;-74
2022/04/14 05:57:14;;;;;;;4.37;2.40;;;14.00;99.90;;;;;;5053358;28;20431;-75
2022/04/14 05:59:40;;;;;;;5.33;1.90;;;14.00;99.90;;;;;;5053262;28;20814;-74
2022/04/14 06:02:06;;;;;;;4.17;1.70;;;14.00;99.90;;;;;;5053395;28;20405;-74
2022/04/14 06:04:32;;;;;;;4.73;4.43;;;14.10;99.90;;;;;;5053217;28;20923;-74
2022/04/14 06:06:57;;;;;;;6.00;1.80;;;14.10;99.90;;;;;;5053271;28;20464;-74
2022/04/14 06:09:23;;;;;;;3.63;3.33;;;14.10;99.90;;;;;;5053112;28;20216;-74
2022/04/14 06:11:48;;;;;;;4.90;2.37;;;14.10;99.90;;;;;;5053211;28;20198;-74
2022/04/14 06:14:14;;;;;;;4.30;2.00;;;14.10;99.90;;;;;;5051524;28;20538;-74
2022/04/14 06:16:39;;;;;;;2.37;2.20;;;14.10;99.90;;;;;;5053028;28;20257;-74
2022/04/14 06:19:05;;;;;;;10.00;2.60;;;14.10;99.90;;;;;;5052862;28;20201;-74
2022/04/14 06:21:30;;;;;;;2.40;2.03;;;14.20;99.90;;;;;;5052955;28;20214;-74
2022/04/14 06:23:57;;;;;;;3.00;2.70;;;14.20;99.90;;;;;;5052809;28;20250;-74
2022/04/14 06:26:23;;;;;;;2.63;2.43;;;14.30;99.90;;;;;;5052651;28;20175;-74
2022/04/14 06:28:48;;;;;;;4.43;1.50;;;14.30;99.90;;;;;;5052763;28;20413;-73
2022/04/14 06:31:14;;;;;;;1.47;1.37;;;14.40;99.90;;;;;;5052656;28;20179;-73
2022/04/14 06:33:40;;;;;;;5.17;1.60;;;14.50;99.90;;;;;;5052480;28;20175;-73
2022/04/14 06:36:06;;;;;;;7.13;2.57;;;14.60;99.90;;;;;;5052312;28;20198;-73
2022/04/14 06:38:31;;;;;;;1.67;1.57;;;14.80;99.90;;;;;;5052532;28;20787;-74
2022/04/14 06:40:57;;;;;;;4.67;1.87;;;15.00;99.90;;;;;;5052509;28;20174;-74
2022/04/14 06:43:24;;;;;;;8.27;2.67;;;15.20;99.90;;;;;;5052430;28;20224;-74
2022/04/14 06:45:50;;;;;;;7.03;2.27;;;15.40;99.90;;;;;;5052053;28;20191;-73
2022/04/14 06:48:16;;;;;;;1.83;1.60;;;15.60;99.90;;;;;;5050929;28;20421;-72
2022/04/14 06:50:42;;;;;;;6.50;1.73;;;15.80;99.90;;;;;;5052455;28;20197;-72
2022/04/14 06:53:08;;;;;;;2.10;1.90;;;16.10;99.90;;;;;;5052486;28;20410;-74
2022/04/14 06:55:35;;;;;;;4.87;2.90;;;16.30;99.90;;;;;;5051922;28;20197;-74
2022/04/14 06:58:01;;;;;;;3.07;2.33;;;16.40;99.90;;;;;;5052322;28;20186;-74
2022/04/14 07:00:28;;;;;;;4.53;1.93;;;16.50;99.90;;;;;;5052268;28;20401;-74
2022/04/14 07:02:55;;;;;;;3.13;2.93;;;16.70;99.90;;;;;;5052742;28;20405;-73
2022/04/14 07:05:25;;;;;;;1.83;1.27;;;16.80;99.90;;;;;;5050655;28;20413;-74
2022/04/14 07:07:51;;;;;;;1.40;1.03;;;17.00;99.90;;;;;;5052203;28;20480;-73
2022/04/14 07:10:17;;;;;;;2.70;2.50;;;17.10;99.90;;;;;;5052141;28;20466;-74
2022/04/14 07:12:46;;;;;;;3.67;2.37;;;17.30;99.90;;;;;;5052076;28;20409;-74
2022/04/14 07:15:13;;;;;;;1.97;1.87;;;17.50;99.90;;;;;;5051521;28;20171;-73
2022/04/14 07:17:38;;;;;;;2.80;1.03;;;17.60;99.90;;;;;;5051592;28;20445;-73
2022/04/14 07:20:07;;;;;;;2.30;2.00;;;17.80;99.90;;;;;;5052035;28;20823;-72
2022/04/14 07:22:46;;;;;;;2.17;1.70;;;17.90;99.90;;;;;;5052006;28;20258;-75
2022/04/14 07:25:13;;;;;;;2.70;1.90;;;18.00;99.90;;;;;;5051808;28;20401;-72
2022/04/14 07:27:39;;;;;;;1.93;1.47;;;18.20;99.90;;;;;;5051735;28;20486;-72
2022/04/14 07:30:05;;;;;;;4.63;3.43;;;18.30;99.90;;;;;;5051928;28;20405;-73
2022/04/14 07:32:39;;;;;;;2.70;1.83;;;18.60;99.90;;;;;;5052017;28;20816;-73
2022/04/14 07:35:06;;;;;;;4.27;1.83;;;18.90;99.90;;;;;;5051654;28;20816;-74
2022/04/14 07:37:33;;;;;;;3.00;2.13;;;19.10;99.90;;;;;;5051898;28;20791;-74
2022/04/14 07:39:59;;;;;;;5.37;3.13;;;19.40;99.90;;;;;;5051806;28;20821;-74
2022/04/14 07:42:36;;;;;;;3.17;2.97;;;19.80;99.90;;;;;;5051645;28;20772;-74
2022/04/14 07:45:02;;;;;;;2.63;1.90;;;20.30;99.90;;;;;;5051489;28;20992;-74
2022/04/14 07:47:28;;;;;;;5.77;2.40;;;21.00;99.90;;;;;;5050772;28;20786;-74
2022/04/14 07:49:53;;;;;;;1.97;1.70;;;22.30;99.90;;;;;;5051727;28;20406;-74
2022/04/14 07:52:19;;;;;;;3.47;3.17;;;23.70;99.90;;;;;;5051671;28;20174;-72
2022/04/14 07:54:45;;;;;;;3.80;2.63;;;24.90;99.90;;;;;;5051258;28;20171;-73
2022/04/14 07:57:11;;;;;;;3.77;2.27;;;25.90;99.90;;;;;;5051627;28;20482;-73
2022/04/14 07:59:37;;;;;;;3.10;2.87;;;26.90;93.50;;;;;;5053400;28;20281;-74
2022/04/14 08:02:03;;;;;;;3.90;2.67;;;28.00;90.70;;;;;;5055614;28;20401;-73
2022/04/14 08:04:30;;;;;;;4.00;2.50;;;29.00;82.50;;;;;;5055324;28;20166;-75
2022/04/14 08:06:56;;;;;;;5.47;3.13;;;29.60;69.00;;;;;;5054305;28;20594;-74
2022/04/14 08:09:21;;;;;;;3.73;3.40;;;29.60;66.40;;;;;;5055353;28;20488;-74
2022/04/14 08:11:47;;;;;;;2.30;2.00;;;29.70;61.70;;;;;;5055366;28;20182;-74
2022/04/14 08:14:13;;;;;;;6.67;3.00;;;29.90;60.00;;;;;;5053564;28;20179;-74
2022/04/14 08:16:39;;;;;;;3.90;3.17;;;29.80;58.80;;;;;;5055327;28;20429;-74
2022/04/14 08:19:05;;;;;;;2.13;1.93;;;29.90;58.70;;;;;;5053953;28;20687;-74
2022/04/14 08:21:31;;;;;;;2.83;2.50;;;30.40;56.90;;;;;;5054045;28;20171;-74
2022/04/14 08:23:57;;;;;;;3.73;2.37;;;30.80;55.70;;;;;;5053694;28;20421;-74
2022/04/14 08:26:23;;;;;;;4.97;3.20;;;31.50;54.30;;;;;;5055048;28;20429;-75
2022/04/14 08:28:49;;;;;;;3.37;2.63;;;32.40;53.70;;;;;;5055143;28;20736;-74
2022/04/14 08:31:16;;;;;;;8.73;4.10;;;33.40;51.70;;;;;;5053791;28;20642;-74
2022/04/14 08:33:43;;;;;;;6.03;3.30;;;34.40;50.90;;;;;;5055061;28;20945;-74
2022/04/14 08:36:13;;;;;;;5.27;3.10;;;35.60;49.10;;;;;;5053462;28;20524;-75
2022/04/14 08:38:46;;;;;;;5.40;4.23;;;36.40;46.60;;;;;;5054767;28;20484;-76
2022/04/14 08:41:18;;;;;;;4.20;3.80;;;36.80;45.80;;;;;;5054747;28;20402;-75
2022/04/14 08:44:01;;;;;;;6.30;3.10;;;37.70;44.00;;;;;;5053521;28;20409;-75
2022/04/14 08:46:27;;;;;;;5.27;4.03;;;38.60;42.10;;;;;;5053516;28;20519;-75
2022/04/14 08:48:59;;;;;;;4.40;3.80;;;39.30;41.00;;;;;;5054610;28;20836;-75
2022/04/14 08:51:30;;;;;;;4.80;4.03;;;40.10;39.80;;;;;;5054803;28;20420;-75
2022/04/14 08:53:57;;;;;;;3.57;3.17;;;40.90;38.60;;;;;;5053190;28;20405;-76
2022/04/14 08:56:24;;;;;;;5.33;4.83;;;41.80;37.60;;;;;;5052968;28;20449;-76
2022/04/14 08:58:53;;;;;;;5.07;3.57;;;42.70;36.30;;;;;;5053239;28;20835;-76
2022/04/14 09:01:19;;;;;;;4.87;2.90;;;43.50;35.50;;;;;;5054174;28;20758;-76
2022/04/14 09:03:45;;;;;;;4.87;3.50;;;44.00;34.80;;;;;;5054289;28;20401;-76
2022/04/14 09:06:11;;;;;;;3.93;3.63;;;44.60;33.70;;;;;;5054025;28;20812;-74
2022/04/14 09:08:37;;;;;;;3.83;3.43;;;45.00;33.20;;;;;;5054427;28;20169;-74
2022/04/14 09:11:03;;;;;;;4.20;3.60;;;45.20;32.20;;;;;;5053067;28;20401;-74
2022/04/14 09:13:28;;;;;;;6.53;4.60;;;45.30;32.40;;;;;;5054423;28;20167;-74
2022/04/14 09:15:54;;;;;;;4.37;3.13;;;45.60;31.80;;;;;;5052658;28;20190;-74
2022/04/14 09:18:19;;;;;;;4.40;4.00;;;46.10;31.50;;;;;;5054071;28;20198;-74
2022/04/14 09:20:48;;;;;;;5.83;4.10;;;46.50;30.70;;;;;;5054146;28;20171;-74
2022/04/14 09:23:22;;;;;;;5.03;3.90;;;47.20;30.60;;;;;;5054079;28;20159;-73
2022/04/14 09:26:04;;;;;;;4.20;3.80;;;47.60;30.10;;;;;;5053786;28;20454;-73
2022/04/14 09:28:30;;;;;;;4.83;4.37;;;47.60;29.80;;;;;;5052648;28;20408;-73
2022/04/14 09:31:08;;;;;;;4.87;4.33;;;47.80;29.80;;;;;;5053883;28;20409;-73
2022/04/14 09:33:35;;;;;;;5.30;4.10;;;48.10;29.60;;;;;;5053796;28;20934;-74
2022/04/14 09:36:16;;;;;;;4.40;3.50;;;47.40;29.50;;;;;;5053519;28;20919;-73
2022/04/14 09:38:52;;;;;;;3.57;3.27;;;47.80;29.90;;;;;;5053703;28;20973;-73
2022/04/14 09:41:37;;;;;;;3.90;3.57;;;48.20;29.20;;;;;;5053717;28;20399;-73
2022/04/14 09:44:06;;;;;;;3.50;3.20;;;47.70;29.00;;;;;;5053438;28;20404;-74
2022/04/14 09:46:32;;;;;;;4.10;3.70;;;47.80;29.10;;;;;;5053501;28;20421;-74
2022/04/14 09:49:09;;;;;;;3.43;3.10;;;48.00;28.80;;;;;;5053613;28;20445;-73
2022/04/14 09:51:46;;;;;;;4.40;3.10;;;47.50;28.60;;;;;;5053514;28;20381;-73
2022/04/14 09:54:19;;;;;;;3.33;2.90;;;47.60;28.50;;;;;;5051864;28;20401;-73
2022/04/14 09:56:51;;;;;;;5.70;3.40;;;48.00;28.40;;;;;;5053416;28;20793;-73
2022/04/14 09:59:22;;;;;;;4.07;3.67;;;48.40;28.20;;;;;;5052794;28;20540;-73
2022/04/14 10:01:49;;;;;;;4.73;3.93;;;47.90;27.80;;;;;;5053391;28;20398;-73
2022/04/14 10:04:32;;;;;;;4.07;3.73;;;46.90;28.00;;;;;;5051537;28;20406;-73
2022/04/14 10:07:04;;;;;;;3.27;2.97;;;46.00;28.10;;;;;;5053189;28;20428;-73
2022/04/14 10:09:30;;;;;;;3.40;3.07;;;46.10;28.70;;;;;;5053556;28;20387;-73
2022/04/14 10:11:56;;;;;;;4.07;3.67;;;46.40;28.90;;;;;;5053615;28;20534;-73
2022/04/14 10:14:25;;;;;;;8.00;5.17;;;45.50;28.30;;;;;;5052714;28;20412;-73
2022/04/14 10:16:52;;;;;;;4.40;3.73;;;45.50;29.00;;;;;;5053089;28;20910;-73
2022/04/14 10:19:21;;;;;;;3.63;3.33;;;46.70;29.00;;;;;;5051514;28;20461;-74
2022/04/14 10:21:46;;;;;;;4.77;4.27;;;48.10;28.60;;;;;;5052591;28;20397;-74
2022/04/14 10:24:12;;;;;;;4.90;4.50;;;49.40;28.50;;;;;;5053016;28;20453;-74
2022/04/14 10:26:38;;;;;;;4.17;2.57;;;50.20;27.80;;;;;;5052795;28;20214;-73
2022/04/14 10:29:06;;;;;;;3.70;3.40;;;50.90;26.90;;;;;;5052691;28;20705;-74
2022/04/14 10:31:36;;;;;;;4.10;3.80;;;51.60;26.80;;;;;;5051491;28;20207;-73
2022/04/14 10:34:04;;;;;;;3.67;3.37;;;49.90;26.50;;;;;;5051387;28;20464;-73
2022/04/14 10:36:32;;;;;;;4.50;4.10;;;47.90;26.90;;;;;;5051104;28;20430;-73
2022/04/14 10:38:59;;;;;;;4.17;3.33;;;47.20;27.40;;;;;;5051369;28;20449;-73
2022/04/14 10:41:31;;;;;;;3.40;3.10;;;45.60;28.00;;;;;;5052956;28;20412;-74
2022/04/14 10:44:00;;;;;;;1.93;1.83;;;45.10;27.90;;;;;;5052483;28;20409;-73
2022/04/14 10:46:40;;;;;;;5.17;3.63;;;44.70;28.30;;;;;;5052195;28;20432;-74
2022/04/14 10:49:13;;;;;;;3.60;2.80;;;44.70;28.60;;;;;;5052509;28;21091;-74
2022/04/14 10:51:39;;;;;;;2.43;2.10;;;44.30;28.50;;;;;;5052480;28;20392;-73
2022/04/14 10:54:08;;;;;;;3.30;3.00;;;43.30;28.40;;;;;;5051006;28;20413;-74
2022/04/14 10:56:33;;;;;;;3.00;2.70;;;43.10;29.20;;;;;;5052127;28;20453;-73
2022/04/14 10:59:00;;;;;;;6.70;3.93;;;43.40;29.10;;;;;;5052248;28;20452;-73
2022/04/14 11:02:04;;;;;;;2.60;2.40;;;42.50;28.70;;;;;;5052443;28;20241;-73
2022/04/14 11:04:48;;;;;;;3.30;2.60;;;40.40;29.30;;;;;;5050948;28;20425;-76
2022/04/14 11:07:18;;;;;;;2.43;2.20;;;38.70;30.10;;;;;;5052261;28;20417;-74
2022/04/14 11:09:58;;;;;;;3.10;2.20;;;38.30;31.80;;;;;;5052190;28;20409;-74
2022/04/14 11:12:32;;;;;;;3.00;2.70;;;40.10;31.60;;;;;;5052110;28;20416;-73
2022/04/14 11:15:06;;;;;;;4.17;3.03;;;41.30;29.90;;;;;;5051915;28;20401;-74
2022/04/14 11:17:32;;;;;;;3.67;3.27;;;42.50;29.60;;;;;;5050679;28;20437;-74
2022/04/14 11:20:30;;;;;;;4.17;3.03;;;42.90;28.90;;;;;;5052175;28;20607;-73
2022/04/14 11:23:18;;;;;;;4.00;3.50;;;41.40;29.00;;;;;;5051965;28;20422;-73
2022/04/14 11:26:02;;;;;;;9.90;3.00;;;39.60;30.40;;;;;;5051621;28;20813;-73
2022/04/14 11:28:31;;;;;;;3.83;2.83;;;37.80;32.00;;;;;;5051912;28;20397;-73
2022/04/14 11:31:13;;;;;;;4.90;2.93;;;36.40;32.50;;;;;;5051480;28;20409;-73
2022/04/14 11:33:42;;;;;;;2.97;2.07;;;35.60;34.10;;;;;;5051087;28;20790;-73
2022/04/14 11:36:14;;;;;;;3.50;3.20;;;37.00;33.80;;;;;;5051516;28;20421;-74
2022/04/14 11:39:01;;;;;;;4.13;3.80;;;39.30;33.20;;;;;;5051767;28;20452;-73
2022/04/14 11:41:41;;;;;;;3.00;2.70;;;41.30;31.50;;;;;;5051816;28;20982;-74
2022/04/14 11:44:08;;;;;;;2.70;2.47;;;42.80;29.70;;;;;;5051741;28;21282;-74
2022/04/14 11:46:37;;;;;;;1.80;1.70;;;44.20;29.60;;;;;;5051436;28;20413;-74
2022/04/14 11:49:03;;;;;;;2.43;2.17;;;46.00;27.90;;;;;;5052040;28;20402;-74
2022/04/14 11:51:29;;;;;;;2.30;2.10;;;47.10;27.10;;;;;;5051569;28;20397;-74
2022/04/14 11:53:56;;;;;;;4.30;2.80;;;47.50;26.30;;;;;;5051427;28;20489;-74
2022/04/14 11:56:23;;;;;;;7.80;2.53;;;47.70;26.80;;;;;;5051082;28;20195;-74
2022/04/14 11:58:49;;;;;;;3.53;2.80;;;48.40;26.90;;;;;;5051607;28;20506;-74
2022/04/14 12:01:14;;;;;;;2.13;2.03;;;48.80;26.50;;;;;;5051635;28;20397;-74
2022/04/14 12:03:41;;;;;;;2.80;2.47;;;47.60;25.70;;;;;;5051549;28;20163;-74
2022/04/14 12:06:10;;;;;;;3.40;2.93;;;46.80;26.40;;;;;;5051314;28;20669;-74
2022/04/14 12:08:36;;;;;;;2.17;2.07;;;46.50;26.70;;;;;;5051574;28;20618;-74
2022/04/14 12:11:03;;;;;;;2.87;2.67;;;45.80;26.90;;;;;;5051426;28;20450;-74
2022/04/14 12:13:33;;;;;;;2.80;2.10;;;44.60;26.70;;;;;;5051490;28;20878;-74
2022/04/14 12:16:03;;;;;;;2.80;2.03;;;43.00;27.10;;;;;;5051621;28;20817;-73
2022/04/14 12:18:29;;;;;;;3.67;2.20;;;41.30;27.70;;;;;;5050140;28;20539;-74
2022/04/14 12:20:55;;;;;;;2.33;1.60;;;40.40;29.00;;;;;;5051489;28;20501;-74
2022/04/14 12:23:20;;;;;;;2.60;2.23;;;40.70;29.40;;;;;;5051397;28;20580;-74
2022/04/14 12:25:46;;;;;;;2.33;2.20;;;41.00;28.50;;;;;;5050948;28;20187;-73
2022/04/14 12:28:12;;;;;;;3.60;2.53;;;40.60;28.80;;;;;;5050089;28;20220;-74
2022/04/14 12:30:41;;;;;;;3.20;2.43;;;40.60;29.10;;;;;;5050031;28;20167;-73
2022/04/14 12:33:07;;;;;;;3.40;2.10;;;40.00;29.30;;;;;;5051339;28;20167;-73
2022/04/14 12:35:43;;;;;;;1.90;1.80;;;39.80;29.00;;;;;;5050930;28;20906;-73
2022/04/14 12:38:16;;;;;;;2.13;1.93;;;39.40;29.20;;;;;;5051199;28;20401;-73
2022/04/14 12:40:59;;;;;;;2.20;2.07;;;38.90;29.70;;;;;;5051170;28;20425;-73
2022/04/14 12:43:48;;;;;;;3.10;2.90;;;38.40;30.30;;;;;;5051223;28;20405;-73
2022/04/14 12:46:37;;;;;;;2.67;1.93;;;38.60;30.80;;;;;;5054318;28;20417;-73
2022/04/14 12:49:04;;;;;;;2.23;2.03;;;38.40;30.80;;;;;;5054788;28;20410;-74